sensor_id;sensor_type;location;lat;lon;timestamp;P1;durP1;ratioP1;P2;durP2;ratioP2
28192;SDS011;15473;50.840;3.396;2022-07-23T00:00:34;6.60;;;4.10;;
28192;SDS011;15473;50.840;3.396;2022-07-23T00:03:20;8.03;;;4.58;;
28192;SDS011;15473;50.840;3.396;2022-07-23T00:06:06;7.92;;;4.58;;
28192;SDS011;15473;50.840;3.396;2022-07-23T00:08:52;5.62;;;4.15;;
28192;SDS011;15473;50.840;3.396;2022-07-23T00:11:38;8.35;;;4.83;;
28192;SDS011;15473;50.840;3.396;2022-07-23T00:14:24;11.57;;;4.42;;
28192;SDS011;15473;50.840;3.396;2022-07-23T00:17:10;8.48;;;4.58;;
28192;SDS011;15473;50.840;3.396;2022-07-23T00:19:56;10.80;;;5.42;;
28192;SDS011;15473;50.840;3.396;2022-07-23T00:22:52;14.63;;;5.30;;
28192;SDS011;15473;50.840;3.396;2022-07-23T00:25:38;9.35;;;4.75;;
28192;SDS011;15473;50.840;3.396;2022-07-23T00:28:24;7.65;;;4.70;;
28192;SDS011;15473;50.840;3.396;2022-07-23T00:31:10;6.15;;;4.05;;
28192;SDS011;15473;50.840;3.396;2022-07-23T00:33:59;7.87;;;4.10;;
28192;SDS011;15473;50.840;3.396;2022-07-23T00:36:47;6.95;;;4.53;;
28192;SDS011;15473;50.840;3.396;2022-07-23T00:39:33;6.40;;;4.50;;
28192;SDS011;15473;50.840;3.396;2022-07-23T00:42:19;7.15;;;4.80;;
28192;SDS011;15473;50.840;3.396;2022-07-23T00:45:06;9.98;;;4.83;;
28192;SDS011;15473;50.840;3.396;2022-07-23T00:47:52;5.75;;;4.05;;
28192;SDS011;15473;50.840;3.396;2022-07-23T00:50:38;6.12;;;4.65;;
28192;SDS011;15473;50.840;3.396;2022-07-23T00:53:24;8.73;;;4.33;;
28192;SDS011;15473;50.840;3.396;2022-07-23T00:56:10;7.70;;;4.22;;
28192;SDS011;15473;50.840;3.396;2022-07-23T01:01:42;6.17;;;4.08;;
28192;SDS011;15473;50.840;3.396;2022-07-23T01:04:29;5.75;;;4.47;;
28192;SDS011;15473;50.840;3.396;2022-07-23T01:07:15;7.50;;;4.20;;
28192;SDS011;15473;50.840;3.396;2022-07-23T01:10:02;7.25;;;4.72;;
28192;SDS011;15473;50.840;3.396;2022-07-23T01:12:49;8.58;;;5.10;;
28192;SDS011;15473;50.840;3.396;2022-07-23T01:15:37;8.88;;;5.47;;
28192;SDS011;15473;50.840;3.396;2022-07-23T01:18:23;7.25;;;4.42;;
28192;SDS011;15473;50.840;3.396;2022-07-23T01:21:10;9.38;;;5.67;;
28192;SDS011;15473;50.840;3.396;2022-07-23T01:23:57;10.75;;;4.75;;
28192;SDS011;15473;50.840;3.396;2022-07-23T01:26:44;8.73;;;5.03;;
28192;SDS011;15473;50.840;3.396;2022-07-23T01:29:29;7.08;;;5.12;;
28192;SDS011;15473;50.840;3.396;2022-07-23T01:32:15;7.60;;;5.45;;
28192;SDS011;15473;50.840;3.396;2022-07-23T01:35:02;9.15;;;5.22;;
28192;SDS011;15473;50.840;3.396;2022-07-23T01:40:33;8.78;;;5.20;;
28192;SDS011;15473;50.840;3.396;2022-07-23T01:43:19;11.60;;;5.67;;
28192;SDS011;15473;50.840;3.396;2022-07-23T01:46:05;10.38;;;5.85;;
28192;SDS011;15473;50.840;3.396;2022-07-23T01:48:51;10.08;;;5.65;;
28192;SDS011;15473;50.840;3.396;2022-07-23T01:54:30;7.55;;;4.60;;
28192;SDS011;15473;50.840;3.396;2022-07-23T01:57:12;6.90;;;4.75;;
28192;SDS011;15473;50.840;3.396;2022-07-23T01:59:58;13.08;;;5.12;;
28192;SDS011;15473;50.840;3.396;2022-07-23T02:02:44;6.87;;;5.20;;
28192;SDS011;15473;50.840;3.396;2022-07-23T02:05:30;8.25;;;5.25;;
28192;SDS011;15473;50.840;3.396;2022-07-23T02:08:17;11.95;;;5.65;;
28192;SDS011;15473;50.840;3.396;2022-07-23T02:11:03;7.20;;;5.53;;
28192;SDS011;15473;50.840;3.396;2022-07-23T02:13:49;10.08;;;6.20;;
28192;SDS011;15473;50.840;3.396;2022-07-23T02:19:20;9.08;;;6.03;;
28192;SDS011;15473;50.840;3.396;2022-07-23T02:22:06;10.72;;;6.33;;
28192;SDS011;15473;50.840;3.396;2022-07-23T02:24:52;9.53;;;6.25;;
28192;SDS011;15473;50.840;3.396;2022-07-23T02:27:38;9.90;;;5.92;;
28192;SDS011;15473;50.840;3.396;2022-07-23T02:33:09;9.43;;;5.70;;
28192;SDS011;15473;50.840;3.396;2022-07-23T02:35:55;7.55;;;5.42;;
28192;SDS011;15473;50.840;3.396;2022-07-23T02:41:26;9.00;;;5.35;;
28192;SDS011;15473;50.840;3.396;2022-07-23T02:44:12;10.38;;;5.75;;
28192;SDS011;15473;50.840;3.396;2022-07-23T02:46:58;10.50;;;5.55;;
28192;SDS011;15473;50.840;3.396;2022-07-23T02:49:45;6.33;;;4.75;;
28192;SDS011;15473;50.840;3.396;2022-07-23T02:52:31;7.78;;;5.28;;
28192;SDS011;15473;50.840;3.396;2022-07-23T02:58:02;7.90;;;5.05;;
28192;SDS011;15473;50.840;3.396;2022-07-23T03:00:48;8.50;;;5.12;;
28192;SDS011;15473;50.840;3.396;2022-07-23T03:03:34;8.75;;;4.95;;
28192;SDS011;15473;50.840;3.396;2022-07-23T03:06:20;8.90;;;5.67;;
28192;SDS011;15473;50.840;3.396;2022-07-23T03:09:05;8.08;;;5.95;;
28192;SDS011;15473;50.840;3.396;2022-07-23T03:11:51;10.32;;;5.72;;
28192;SDS011;15473;50.840;3.396;2022-07-23T03:14:37;8.73;;;6.00;;
28192;SDS011;15473;50.840;3.396;2022-07-23T03:17:23;9.90;;;6.12;;
28192;SDS011;15473;50.840;3.396;2022-07-23T03:22:54;9.65;;;6.20;;
28192;SDS011;15473;50.840;3.396;2022-07-23T03:25:40;9.68;;;5.75;;
28192;SDS011;15473;50.840;3.396;2022-07-23T03:31:11;11.45;;;5.53;;
28192;SDS011;15473;50.840;3.396;2022-07-23T03:33:57;9.18;;;5.78;;
28192;SDS011;15473;50.840;3.396;2022-07-23T03:36:43;8.98;;;6.00;;
28192;SDS011;15473;50.840;3.396;2022-07-23T03:39:29;10.45;;;6.55;;
28192;SDS011;15473;50.840;3.396;2022-07-23T03:42:15;9.28;;;5.53;;
28192;SDS011;15473;50.840;3.396;2022-07-23T03:47:47;8.63;;;5.45;;
28192;SDS011;15473;50.840;3.396;2022-07-23T03:53:19;8.10;;;5.40;;
28192;SDS011;15473;50.840;3.396;2022-07-23T03:56:05;12.80;;;5.65;;
28192;SDS011;15473;50.840;3.396;2022-07-23T03:58:51;10.13;;;6.87;;
28192;SDS011;15473;50.840;3.396;2022-07-23T04:01:38;9.20;;;6.50;;
28192;SDS011;15473;50.840;3.396;2022-07-23T04:04:24;10.55;;;6.20;;
28192;SDS011;15473;50.840;3.396;2022-07-23T04:07:10;10.03;;;6.50;;
28192;SDS011;15473;50.840;3.396;2022-07-23T04:09:56;10.82;;;7.00;;
28192;SDS011;15473;50.840;3.396;2022-07-23T04:12:43;13.13;;;6.80;;
28192;SDS011;15473;50.840;3.396;2022-07-23T04:15:28;12.05;;;6.97;;
28192;SDS011;15473;50.840;3.396;2022-07-23T04:18:16;11.08;;;6.58;;
28192;SDS011;15473;50.840;3.396;2022-07-23T04:21:03;19.73;;;7.92;;
28192;SDS011;15473;50.840;3.396;2022-07-23T04:23:49;13.55;;;7.72;;
28192;SDS011;15473;50.840;3.396;2022-07-23T04:29:20;10.95;;;7.20;;
28192;SDS011;15473;50.840;3.396;2022-07-23T04:32:06;14.13;;;6.90;;
28192;SDS011;15473;50.840;3.396;2022-07-23T04:34:52;12.80;;;6.67;;
28192;SDS011;15473;50.840;3.396;2022-07-23T04:37:38;11.68;;;7.15;;
28192;SDS011;15473;50.840;3.396;2022-07-23T04:40:25;13.60;;;6.35;;
28192;SDS011;15473;50.840;3.396;2022-07-23T04:43:12;10.85;;;6.97;;
28192;SDS011;15473;50.840;3.396;2022-07-23T04:45:57;12.35;;;6.95;;
28192;SDS011;15473;50.840;3.396;2022-07-23T04:51:29;11.08;;;6.37;;
28192;SDS011;15473;50.840;3.396;2022-07-23T04:57:02;10.13;;;6.25;;
28192;SDS011;15473;50.840;3.396;2022-07-23T04:59:48;11.88;;;6.62;;
28192;SDS011;15473;50.840;3.396;2022-07-23T05:02:34;17.67;;;7.47;;
28192;SDS011;15473;50.840;3.396;2022-07-23T05:05:20;12.75;;;7.85;;
28192;SDS011;15473;50.840;3.396;2022-07-23T05:08:08;12.65;;;7.62;;
28192;SDS011;15473;50.840;3.396;2022-07-23T05:10:53;14.47;;;7.47;;
28192;SDS011;15473;50.840;3.396;2022-07-23T05:13:40;11.63;;;7.58;;
28192;SDS011;15473;50.840;3.396;2022-07-23T05:16:26;13.80;;;7.80;;
28192;SDS011;15473;50.840;3.396;2022-07-23T05:21:57;12.10;;;7.05;;
28192;SDS011;15473;50.840;3.396;2022-07-23T05:27:29;13.68;;;8.80;;
28192;SDS011;15473;50.840;3.396;2022-07-23T05:30:15;14.15;;;8.28;;
28192;SDS011;15473;50.840;3.396;2022-07-23T05:33:01;12.78;;;8.18;;
28192;SDS011;15473;50.840;3.396;2022-07-23T05:35:47;12.70;;;8.18;;
28192;SDS011;15473;50.840;3.396;2022-07-23T05:38:33;12.65;;;7.67;;
28192;SDS011;15473;50.840;3.396;2022-07-23T05:44:05;15.88;;;8.45;;
28192;SDS011;15473;50.840;3.396;2022-07-23T05:49:37;14.50;;;8.60;;
28192;SDS011;15473;50.840;3.396;2022-07-23T05:52:24;18.25;;;9.13;;
28192;SDS011;15473;50.840;3.396;2022-07-23T05:55:11;12.80;;;8.13;;
28192;SDS011;15473;50.840;3.396;2022-07-23T05:57:58;19.05;;;9.40;;
28192;SDS011;15473;50.840;3.396;2022-07-23T06:00:44;18.00;;;8.73;;
28192;SDS011;15473;50.840;3.396;2022-07-23T06:03:30;16.32;;;9.28;;
28192;SDS011;15473;50.840;3.396;2022-07-23T06:09:01;14.55;;;8.70;;
28192;SDS011;15473;50.840;3.396;2022-07-23T06:11:47;18.42;;;9.78;;
28192;SDS011;15473;50.840;3.396;2022-07-23T06:14:33;14.80;;;9.15;;
28192;SDS011;15473;50.840;3.396;2022-07-23T06:17:19;14.50;;;8.63;;
28192;SDS011;15473;50.840;3.396;2022-07-23T06:20:09;19.02;;;9.33;;
28192;SDS011;15473;50.840;3.396;2022-07-23T06:22:56;19.55;;;9.60;;
28192;SDS011;15473;50.840;3.396;2022-07-23T06:28:27;12.47;;;8.63;;
28192;SDS011;15473;50.840;3.396;2022-07-23T06:31:13;13.60;;;8.45;;
28192;SDS011;15473;50.840;3.396;2022-07-23T06:36:45;13.18;;;9.18;;
28192;SDS011;15473;50.840;3.396;2022-07-23T06:39:31;14.18;;;8.38;;
28192;SDS011;15473;50.840;3.396;2022-07-23T06:42:17;13.60;;;8.78;;
28192;SDS011;15473;50.840;3.396;2022-07-23T06:45:04;16.42;;;9.13;;
28192;SDS011;15473;50.840;3.396;2022-07-23T06:50:35;16.25;;;9.03;;
28192;SDS011;15473;50.840;3.396;2022-07-23T06:53:21;12.90;;;7.78;;
28192;SDS011;15473;50.840;3.396;2022-07-23T06:56:07;14.25;;;8.35;;
28192;SDS011;15473;50.840;3.396;2022-07-23T06:58:52;16.57;;;8.73;;
28192;SDS011;15473;50.840;3.396;2022-07-23T07:01:39;13.85;;;7.95;;
28192;SDS011;15473;50.840;3.396;2022-07-23T07:04:25;12.90;;;7.80;;
28192;SDS011;15473;50.840;3.396;2022-07-23T07:07:11;12.43;;;9.23;;
28192;SDS011;15473;50.840;3.396;2022-07-23T07:12:42;15.20;;;8.10;;
28192;SDS011;15473;50.840;3.396;2022-07-23T07:15:28;13.75;;;8.50;;
28192;SDS011;15473;50.840;3.396;2022-07-23T07:20:59;11.57;;;7.62;;
28192;SDS011;15473;50.840;3.396;2022-07-23T07:26:30;16.15;;;8.53;;
28192;SDS011;15473;50.840;3.396;2022-07-23T07:29:16;15.18;;;7.62;;
28192;SDS011;15473;50.840;3.396;2022-07-23T07:32:03;13.78;;;8.33;;
28192;SDS011;15473;50.840;3.396;2022-07-23T07:34:49;13.22;;;8.25;;
28192;SDS011;15473;50.840;3.396;2022-07-23T07:37:35;11.18;;;7.50;;
28192;SDS011;15473;50.840;3.396;2022-07-23T07:40:21;13.22;;;8.10;;
28192;SDS011;15473;50.840;3.396;2022-07-23T07:43:07;9.55;;;7.55;;
28192;SDS011;15473;50.840;3.396;2022-07-23T07:45:53;10.48;;;7.60;;
28192;SDS011;15473;50.840;3.396;2022-07-23T07:48:39;13.35;;;7.55;;
28192;SDS011;15473;50.840;3.396;2022-07-23T07:51:25;13.45;;;7.92;;
28192;SDS011;15473;50.840;3.396;2022-07-23T07:54:12;14.13;;;8.08;;
28192;SDS011;15473;50.840;3.396;2022-07-23T07:56:58;12.00;;;7.45;;
28192;SDS011;15473;50.840;3.396;2022-07-23T07:59:44;13.28;;;7.17;;
28192;SDS011;15473;50.840;3.396;2022-07-23T08:02:38;17.67;;;7.92;;
28192;SDS011;15473;50.840;3.396;2022-07-23T08:05:22;13.98;;;8.05;;
28192;SDS011;15473;50.840;3.396;2022-07-23T08:08:07;16.80;;;7.70;;
28192;SDS011;15473;50.840;3.396;2022-07-23T08:10:55;13.98;;;7.12;;
28192;SDS011;15473;50.840;3.396;2022-07-23T08:16:26;14.93;;;8.83;;
28192;SDS011;15473;50.840;3.396;2022-07-23T08:21:57;12.23;;;7.53;;
28192;SDS011;15473;50.840;3.396;2022-07-23T08:24:45;16.15;;;7.62;;
28192;SDS011;15473;50.840;3.396;2022-07-23T08:27:31;11.28;;;7.28;;
28192;SDS011;15473;50.840;3.396;2022-07-23T08:30:19;11.48;;;7.47;;
28192;SDS011;15473;50.840;3.396;2022-07-23T08:35:52;12.82;;;6.62;;
28192;SDS011;15473;50.840;3.396;2022-07-23T08:38:38;10.82;;;6.37;;
28192;SDS011;15473;50.840;3.396;2022-07-23T08:41:25;12.85;;;7.00;;
28192;SDS011;15473;50.840;3.396;2022-07-23T08:44:11;14.35;;;7.53;;
28192;SDS011;15473;50.840;3.396;2022-07-23T08:46:57;12.23;;;7.05;;
28192;SDS011;15473;50.840;3.396;2022-07-23T08:52:30;14.07;;;7.50;;
28192;SDS011;15473;50.840;3.396;2022-07-23T08:55:17;14.10;;;7.42;;
28192;SDS011;15473;50.840;3.396;2022-07-23T08:58:03;9.55;;;6.42;;
28192;SDS011;15473;50.840;3.396;2022-07-23T09:00:50;13.95;;;7.95;;
28192;SDS011;15473;50.840;3.396;2022-07-23T09:03:36;11.83;;;7.35;;
28192;SDS011;15473;50.840;3.396;2022-07-23T09:06:24;16.32;;;6.97;;
28192;SDS011;15473;50.840;3.396;2022-07-23T09:09:18;13.18;;;7.60;;
28192;SDS011;15473;50.840;3.396;2022-07-23T09:12:05;13.28;;;6.37;;
28192;SDS011;15473;50.840;3.396;2022-07-23T09:14:52;9.40;;;5.50;;
28192;SDS011;15473;50.840;3.396;2022-07-23T09:17:38;7.60;;;4.78;;
28192;SDS011;15473;50.840;3.396;2022-07-23T09:20:25;10.63;;;6.12;;
28192;SDS011;15473;50.840;3.396;2022-07-23T09:25:58;13.32;;;6.03;;
28192;SDS011;15473;50.840;3.396;2022-07-23T09:28:58;9.03;;;5.60;;
28192;SDS011;15473;50.840;3.396;2022-07-23T09:31:51;7.65;;;4.92;;
28192;SDS011;15473;50.840;3.396;2022-07-23T09:34:39;10.30;;;6.40;;
28192;SDS011;15473;50.840;3.396;2022-07-23T09:37:25;9.43;;;6.12;;
28192;SDS011;15473;50.840;3.396;2022-07-23T09:40:11;7.35;;;4.85;;
28192;SDS011;15473;50.840;3.396;2022-07-23T09:42:59;13.70;;;5.83;;
28192;SDS011;15473;50.840;3.396;2022-07-23T09:45:45;8.48;;;4.87;;
28192;SDS011;15473;50.840;3.396;2022-07-23T09:48:31;10.20;;;4.87;;
28192;SDS011;15473;50.840;3.396;2022-07-23T09:51:18;10.23;;;6.75;;
28192;SDS011;15473;50.840;3.396;2022-07-23T09:54:09;9.73;;;4.53;;
28192;SDS011;15473;50.840;3.396;2022-07-23T09:56:56;8.23;;;5.22;;
28192;SDS011;15473;50.840;3.396;2022-07-23T09:59:44;8.83;;;5.45;;
28192;SDS011;15473;50.840;3.396;2022-07-23T10:02:33;6.03;;;4.00;;
28192;SDS011;15473;50.840;3.396;2022-07-23T10:08:04;6.37;;;4.28;;
28192;SDS011;15473;50.840;3.396;2022-07-23T10:13:54;7.58;;;4.92;;
28192;SDS011;15473;50.840;3.396;2022-07-23T10:16:42;6.40;;;4.20;;
28192;SDS011;15473;50.840;3.396;2022-07-23T10:19:29;9.00;;;4.22;;
28192;SDS011;15473;50.840;3.396;2022-07-23T10:22:19;5.90;;;3.37;;
28192;SDS011;15473;50.840;3.396;2022-07-23T10:30:45;6.10;;;4.05;;
28192;SDS011;15473;50.840;3.396;2022-07-23T10:39:28;5.75;;;3.72;;
28192;SDS011;15473;50.840;3.396;2022-07-23T10:42:15;8.35;;;5.42;;
28192;SDS011;15473;50.840;3.396;2022-07-23T10:51:13;4.00;;;3.42;;
28192;SDS011;15473;50.840;3.396;2022-07-23T10:57:19;5.20;;;3.60;;
28192;SDS011;15473;50.840;3.396;2022-07-23T11:00:13;5.95;;;3.37;;
28192;SDS011;15473;50.840;3.396;2022-07-23T11:02:32;7.10;;;3.85;;
28192;SDS011;15473;50.840;3.396;2022-07-23T11:05:19;5.20;;;4.20;;
28192;SDS011;15473;50.840;3.396;2022-07-23T11:11:15;9.53;;;5.83;;
28192;SDS011;15473;50.840;3.396;2022-07-23T11:13:42;8.88;;;4.55;;
28192;SDS011;15473;50.840;3.396;2022-07-23T11:16:28;12.30;;;5.67;;
28192;SDS011;15473;50.840;3.396;2022-07-23T11:19:15;7.10;;;4.35;;
28192;SDS011;15473;50.840;3.396;2022-07-23T11:22:08;6.00;;;3.65;;
28192;SDS011;15473;50.840;3.396;2022-07-23T11:24:54;5.67;;;3.27;;
28192;SDS011;15473;50.840;3.396;2022-07-23T11:27:43;4.15;;;2.42;;
28192;SDS011;15473;50.840;3.396;2022-07-23T11:33:17;5.10;;;3.12;;
28192;SDS011;15473;50.840;3.396;2022-07-23T11:36:04;6.20;;;3.50;;
28192;SDS011;15473;50.840;3.396;2022-07-23T11:38:51;4.20;;;2.75;;
28192;SDS011;15473;50.840;3.396;2022-07-23T11:41:43;8.00;;;3.72;;
28192;SDS011;15473;50.840;3.396;2022-07-23T11:44:35;8.03;;;4.22;;
28192;SDS011;15473;50.840;3.396;2022-07-23T11:47:21;5.22;;;3.62;;
28192;SDS011;15473;50.840;3.396;2022-07-23T11:50:05;4.33;;;3.67;;
28192;SDS011;15473;50.840;3.396;2022-07-23T11:52:52;5.67;;;3.87;;
28192;SDS011;15473;50.840;3.396;2022-07-23T11:55:38;5.67;;;4.25;;
28192;SDS011;15473;50.840;3.396;2022-07-23T11:58:24;7.08;;;4.20;;
28192;SDS011;15473;50.840;3.396;2022-07-23T12:01:11;4.45;;;3.87;;
28192;SDS011;15473;50.840;3.396;2022-07-23T12:03:58;4.55;;;3.80;;
28192;SDS011;15473;50.840;3.396;2022-07-23T12:06:45;9.08;;;4.17;;
28192;SDS011;15473;50.840;3.396;2022-07-23T12:09:34;7.40;;;4.30;;
28192;SDS011;15473;50.840;3.396;2022-07-23T12:12:21;7.03;;;4.22;;
28192;SDS011;15473;50.840;3.396;2022-07-23T12:15:08;4.67;;;3.90;;
28192;SDS011;15473;50.840;3.396;2022-07-23T12:17:54;7.58;;;3.90;;
28192;SDS011;15473;50.840;3.396;2022-07-23T12:20:46;7.15;;;4.05;;
28192;SDS011;15473;50.840;3.396;2022-07-23T12:23:29;4.87;;;3.62;;
28192;SDS011;15473;50.840;3.396;2022-07-23T12:26:15;9.70;;;3.58;;
28192;SDS011;15473;50.840;3.396;2022-07-23T12:29:06;5.40;;;3.77;;
28192;SDS011;15473;50.840;3.396;2022-07-23T12:31:52;5.50;;;3.83;;
28192;SDS011;15473;50.840;3.396;2022-07-23T12:34:40;5.40;;;4.20;;
28192;SDS011;15473;50.840;3.396;2022-07-23T12:37:37;4.97;;;3.67;;
28192;SDS011;15473;50.840;3.396;2022-07-23T12:43:12;6.40;;;3.83;;
28192;SDS011;15473;50.840;3.396;2022-07-23T12:46:02;8.65;;;4.60;;
28192;SDS011;15473;50.840;3.396;2022-07-23T12:48:50;6.47;;;5.30;;
28192;SDS011;15473;50.840;3.396;2022-07-23T12:51:42;9.68;;;5.85;;
28192;SDS011;15473;50.840;3.396;2022-07-23T12:54:30;8.38;;;4.97;;
28192;SDS011;15473;50.840;3.396;2022-07-23T12:57:16;9.25;;;4.58;;
28192;SDS011;15473;50.840;3.396;2022-07-23T13:00:09;6.37;;;4.75;;
28192;SDS011;15473;50.840;3.396;2022-07-23T13:02:55;7.10;;;4.92;;
28192;SDS011;15473;50.840;3.396;2022-07-23T13:05:41;7.25;;;4.85;;
28192;SDS011;15473;50.840;3.396;2022-07-23T13:08:30;5.95;;;4.80;;
28192;SDS011;15473;50.840;3.396;2022-07-23T13:11:16;8.65;;;5.55;;
28192;SDS011;15473;50.840;3.396;2022-07-23T13:14:02;15.45;;;6.97;;
28192;SDS011;15473;50.840;3.396;2022-07-23T13:17:09;8.05;;;5.20;;
28192;SDS011;15473;50.840;3.396;2022-07-23T13:19:56;10.55;;;6.62;;
28192;SDS011;15473;50.840;3.396;2022-07-23T13:25:27;8.40;;;4.42;;
28192;SDS011;15473;50.840;3.396;2022-07-23T13:28:21;11.15;;;4.85;;
28192;SDS011;15473;50.840;3.396;2022-07-23T13:31:07;7.15;;;5.05;;
28192;SDS011;15473;50.840;3.396;2022-07-23T13:33:53;8.98;;;5.25;;
28192;SDS011;15473;50.840;3.396;2022-07-23T13:36:40;11.08;;;5.58;;
28192;SDS011;15473;50.840;3.396;2022-07-23T13:39:27;9.60;;;5.55;;
28192;SDS011;15473;50.840;3.396;2022-07-23T13:42:13;7.33;;;5.22;;
28192;SDS011;15473;50.840;3.396;2022-07-23T13:45:00;10.78;;;4.62;;
28192;SDS011;15473;50.840;3.396;2022-07-23T13:50:37;7.17;;;4.65;;
28192;SDS011;15473;50.840;3.396;2022-07-23T13:53:24;9.78;;;5.70;;
28192;SDS011;15473;50.840;3.396;2022-07-23T13:56:10;7.55;;;5.42;;
28192;SDS011;15473;50.840;3.396;2022-07-23T13:58:57;6.97;;;5.65;;
28192;SDS011;15473;50.840;3.396;2022-07-23T14:01:44;8.70;;;4.70;;
28192;SDS011;15473;50.840;3.396;2022-07-23T14:04:30;6.90;;;4.83;;
28192;SDS011;15473;50.840;3.396;2022-07-23T14:07:17;5.50;;;4.37;;
28192;SDS011;15473;50.840;3.396;2022-07-23T14:10:04;6.78;;;4.83;;
28192;SDS011;15473;50.840;3.396;2022-07-23T14:15:55;9.58;;;4.42;;
28192;SDS011;15473;50.840;3.396;2022-07-23T14:18:41;9.10;;;5.62;;
28192;SDS011;15473;50.840;3.396;2022-07-23T14:24:12;5.17;;;4.50;;
28192;SDS011;15473;50.840;3.396;2022-07-23T14:26:59;7.50;;;4.75;;
28192;SDS011;15473;50.840;3.396;2022-07-23T14:29:46;9.75;;;5.10;;
28192;SDS011;15473;50.840;3.396;2022-07-23T14:35:17;5.80;;;4.45;;
28192;SDS011;15473;50.840;3.396;2022-07-23T14:38:04;7.72;;;4.62;;
28192;SDS011;15473;50.840;3.396;2022-07-23T14:43:37;6.12;;;5.50;;
28192;SDS011;15473;50.840;3.396;2022-07-23T14:46:23;5.92;;;4.55;;
28192;SDS011;15473;50.840;3.396;2022-07-23T14:49:09;6.05;;;4.72;;
28192;SDS011;15473;50.840;3.396;2022-07-23T14:51:55;5.78;;;4.40;;
28192;SDS011;15473;50.840;3.396;2022-07-23T14:54:41;5.50;;;4.22;;
28192;SDS011;15473;50.840;3.396;2022-07-23T14:57:28;9.50;;;4.87;;
28192;SDS011;15473;50.840;3.396;2022-07-23T15:00:14;6.28;;;4.37;;
28192;SDS011;15473;50.840;3.396;2022-07-23T15:03:00;5.42;;;4.42;;
28192;SDS011;15473;50.840;3.396;2022-07-23T15:05:47;7.75;;;3.70;;
28192;SDS011;15473;50.840;3.396;2022-07-23T15:08:33;8.60;;;4.78;;
28192;SDS011;15473;50.840;3.396;2022-07-23T15:11:19;5.40;;;4.50;;
28192;SDS011;15473;50.840;3.396;2022-07-23T15:16:50;5.37;;;4.15;;
28192;SDS011;15473;50.840;3.396;2022-07-23T15:19:37;6.58;;;4.40;;
28192;SDS011;15473;50.840;3.396;2022-07-23T15:22:23;4.40;;;4.00;;
28192;SDS011;15473;50.840;3.396;2022-07-23T15:25:09;6.00;;;4.08;;
28192;SDS011;15473;50.840;3.396;2022-07-23T15:27:56;6.75;;;4.85;;
28192;SDS011;15473;50.840;3.396;2022-07-23T15:30:43;5.97;;;4.45;;
28192;SDS011;15473;50.840;3.396;2022-07-23T15:36:14;7.03;;;4.65;;
28192;SDS011;15473;50.840;3.396;2022-07-23T15:39:01;5.42;;;4.47;;
28192;SDS011;15473;50.840;3.396;2022-07-23T15:41:48;4.95;;;4.45;;
28192;SDS011;15473;50.840;3.396;2022-07-23T15:44:41;5.25;;;4.20;;
28192;SDS011;15473;50.840;3.396;2022-07-23T15:47:27;5.58;;;4.75;;
28192;SDS011;15473;50.840;3.396;2022-07-23T15:50:15;7.03;;;4.80;;
28192;SDS011;15473;50.840;3.396;2022-07-23T15:53:02;6.58;;;4.95;;
28192;SDS011;15473;50.840;3.396;2022-07-23T15:55:49;6.67;;;4.80;;
28192;SDS011;15473;50.840;3.396;2022-07-23T15:58:36;5.58;;;4.70;;
28192;SDS011;15473;50.840;3.396;2022-07-23T16:01:22;6.12;;;4.25;;
28192;SDS011;15473;50.840;3.396;2022-07-23T16:04:09;5.87;;;4.20;;
28192;SDS011;15473;50.840;3.396;2022-07-23T16:06:56;4.37;;;3.83;;
28192;SDS011;15473;50.840;3.396;2022-07-23T16:09:43;9.15;;;4.80;;
28192;SDS011;15473;50.840;3.396;2022-07-23T16:12:29;6.78;;;4.47;;
28192;SDS011;15473;50.840;3.396;2022-07-23T16:15:15;6.90;;;5.50;;
28192;SDS011;15473;50.840;3.396;2022-07-23T16:18:01;10.05;;;5.95;;
28192;SDS011;15473;50.840;3.396;2022-07-23T16:20:48;6.55;;;5.28;;
28192;SDS011;15473;50.840;3.396;2022-07-23T16:23:34;4.95;;;3.80;;
28192;SDS011;15473;50.840;3.396;2022-07-23T16:26:22;5.37;;;4.50;;
28192;SDS011;15473;50.840;3.396;2022-07-23T16:29:09;6.58;;;5.03;;
28192;SDS011;15473;50.840;3.396;2022-07-23T16:34:41;8.18;;;4.92;;
28192;SDS011;15473;50.840;3.396;2022-07-23T16:37:27;6.85;;;4.47;;
28192;SDS011;15473;50.840;3.396;2022-07-23T16:40:13;6.03;;;4.90;;
28192;SDS011;15473;50.840;3.396;2022-07-23T16:43:00;6.03;;;5.20;;
28192;SDS011;15473;50.840;3.396;2022-07-23T16:45:46;6.03;;;4.83;;
28192;SDS011;15473;50.840;3.396;2022-07-23T16:48:32;7.08;;;4.87;;
28192;SDS011;15473;50.840;3.396;2022-07-23T16:51:18;6.67;;;4.90;;
28192;SDS011;15473;50.840;3.396;2022-07-23T16:54:10;8.68;;;5.30;;
28192;SDS011;15473;50.840;3.396;2022-07-23T16:56:57;5.58;;;4.62;;
28192;SDS011;15473;50.840;3.396;2022-07-23T16:59:43;9.78;;;6.30;;
28192;SDS011;15473;50.840;3.396;2022-07-23T17:02:29;5.35;;;4.75;;
28192;SDS011;15473;50.840;3.396;2022-07-23T17:08:03;15.78;;;9.35;;
28192;SDS011;15473;50.840;3.396;2022-07-23T17:10:50;18.23;;;10.28;;
28192;SDS011;15473;50.840;3.396;2022-07-23T17:13:43;19.45;;;13.40;;
28192;SDS011;15473;50.840;3.396;2022-07-23T17:16:29;27.58;;;14.58;;
28192;SDS011;15473;50.840;3.396;2022-07-23T17:19:15;21.75;;;13.38;;
28192;SDS011;15473;50.840;3.396;2022-07-23T17:22:03;21.12;;;14.00;;
28192;SDS011;15473;50.840;3.396;2022-07-23T17:24:49;17.45;;;11.83;;
28192;SDS011;15473;50.840;3.396;2022-07-23T17:30:20;26.77;;;13.50;;
28192;SDS011;15473;50.840;3.396;2022-07-23T17:35:52;28.32;;;15.40;;
28192;SDS011;15473;50.840;3.396;2022-07-23T17:41:45;21.45;;;13.32;;
28192;SDS011;15473;50.840;3.396;2022-07-23T17:44:34;23.35;;;14.90;;
28192;SDS011;15473;50.840;3.396;2022-07-23T17:47:20;20.45;;;14.40;;
28192;SDS011;15473;50.840;3.396;2022-07-23T17:50:07;23.20;;;14.23;;
28192;SDS011;15473;50.840;3.396;2022-07-23T17:52:54;24.72;;;15.60;;
28192;SDS011;15473;50.840;3.396;2022-07-23T17:55:40;22.37;;;13.50;;
28192;SDS011;15473;50.840;3.396;2022-07-23T17:58:33;20.27;;;13.72;;
28192;SDS011;15473;50.840;3.396;2022-07-23T18:01:19;20.17;;;12.37;;
28192;SDS011;15473;50.840;3.396;2022-07-23T18:06:51;17.95;;;11.93;;
28192;SDS011;15473;50.840;3.396;2022-07-23T18:09:37;19.05;;;10.95;;
28192;SDS011;15473;50.840;3.396;2022-07-23T18:12:25;21.27;;;11.38;;
28192;SDS011;15473;50.840;3.396;2022-07-23T18:17:56;17.42;;;10.72;;
28192;SDS011;15473;50.840;3.396;2022-07-23T18:20:42;20.37;;;9.58;;
28192;SDS011;15473;50.840;3.396;2022-07-23T18:23:28;17.60;;;10.18;;
28192;SDS011;15473;50.840;3.396;2022-07-23T18:28:59;16.90;;;10.15;;
28192;SDS011;15473;50.840;3.396;2022-07-23T18:34:30;16.85;;;10.28;;
28192;SDS011;15473;50.840;3.396;2022-07-23T18:37:17;18.77;;;9.65;;
28192;SDS011;15473;50.840;3.396;2022-07-23T18:40:05;16.70;;;9.85;;
28192;SDS011;15473;50.840;3.396;2022-07-23T18:42:52;17.45;;;9.75;;
28192;SDS011;15473;50.840;3.396;2022-07-23T18:45:40;18.37;;;10.15;;
28192;SDS011;15473;50.840;3.396;2022-07-23T18:48:26;14.55;;;9.70;;
28192;SDS011;15473;50.840;3.396;2022-07-23T18:51:12;20.92;;;10.78;;
28192;SDS011;15473;50.840;3.396;2022-07-23T18:57:04;17.32;;;9.75;;
28192;SDS011;15473;50.840;3.396;2022-07-23T19:02:35;16.65;;;9.73;;
28192;SDS011;15473;50.840;3.396;2022-07-23T19:05:21;15.50;;;9.45;;
28192;SDS011;15473;50.840;3.396;2022-07-23T19:08:07;16.05;;;9.50;;
28192;SDS011;15473;50.840;3.396;2022-07-23T19:10:54;16.67;;;10.25;;
28192;SDS011;15473;50.840;3.396;2022-07-23T19:13:41;16.48;;;10.32;;
28192;SDS011;15473;50.840;3.396;2022-07-23T19:16:26;14.30;;;9.28;;
28192;SDS011;15473;50.840;3.396;2022-07-23T19:19:13;19.23;;;9.30;;
28192;SDS011;15473;50.840;3.396;2022-07-23T19:21:59;15.50;;;9.35;;
28192;SDS011;15473;50.840;3.396;2022-07-23T19:24:45;16.52;;;9.28;;
28192;SDS011;15473;50.840;3.396;2022-07-23T19:27:31;14.73;;;9.63;;